Time;durP1;ratioP1;P1;durP2;ratioP2;P2;SDS_P1;SDS_P2;PMS_P1;PMS_P2;Temp;Humidity;BMP_temperature;BMP_pressure;BME280_temperature;BME280_humidity;BME280_pressure;Samples;Min_cycle;Max_cycle;Signal;HPM_P1;HPM_P2
2023/11/09 09:13:47;;;;;;;;;;;;;;;8.41;100.00;99944.62;1808400;77;20447;-70
2023/11/09 09:16:15;;;;;;;;;;;;;;;8.42;100.00;99946.30;1835718;77;20159;-80
2023/11/09 09:18:42;;;;;;;;;;;;;;;8.43;100.00;99951.03;1810173;77;20088;-67
2023/11/09 09:21:09;;;;;;;;;;;;;;;8.44;100.00;99945.77;1827534;78;20103;-67
2023/11/09 09:23:38;;;;;;;;;;;;;;;8.47;100.00;99946.08;1814278;77;20090;-74
2023/11/09 09:26:07;;;;;;;;;;;;;;;8.49;100.00;99953.33;1825058;77;20447;-74
2023/11/09 09:28:34;;;;;;;;;;;;;;;8.52;100.00;99959.67;1820612;77;20086;-75
2023/11/09 09:31:03;;;;;;;;;;;;;;;8.53;100.00;99953.11;1816279;77;20114;-68
2023/11/09 09:33:31;;;;;;;;;;;;;;;8.56;100.00;99959.91;1815011;77;20092;-74
2023/11/09 09:35:59;;;;;;;;;;;;;;;8.58;100.00;99964.56;1814582;77;20102;-76
2023/11/09 09:38:26;;;;;;;;;;;;;;;8.59;100.00;99969.69;1817914;77;20129;-72
2023/11/09 09:40:53;;;;;;;;;;;;;;;8.60;100.00;99964.03;1813379;77;20189;-70
2023/11/09 09:43:22;;;;;;;;;;;;;;;8.59;100.00;99961.90;1813342;78;20129;-65
2023/11/09 09:45:56;;;;;;;;;;;;;;;8.58;100.00;99962.81;1811196;77;20162;-79
2023/11/09 09:48:28;;;;;;;;;;;;;;;8.61;100.00;99963.13;1803378;77;20192;-71
2023/11/09 09:50:58;;;;;;;;;;;;;;;8.66;100.00;99963.28;1817381;77;20123;-74
2023/11/09 09:53:26;;;;;;;;;;;;;;;8.68;100.00;99968.39;1811495;77;20142;-70
2023/11/09 09:55:54;;;;;;;;;;;;;;;8.68;100.00;99969.23;1818103;77;20655;-72
2023/11/09 09:58:24;;;;;;;;;;;;;;;8.68;100.00;99969.70;1820643;77;20173;-66
2023/11/09 10:00:54;;;;;;;;;;;;;;;8.68;100.00;99968.39;1812645;78;20163;-65
2023/11/09 10:03:23;;;;;;;;;;;;;;;8.68;100.00;99974.43;1823432;77;20136;-73
2023/11/09 10:13:15;;;;;;;;;;;;;;;8.65;100.00;99974.58;1806602;77;20094;-65
2023/11/09 10:15:43;;;;;;;;;;;;;;;8.66;100.00;99972.37;1819068;77;20124;-66
2023/11/09 10:18:12;;;;;;;;;;;;;;;8.68;100.00;99974.89;1808963;77;20574;-82
2023/11/09 10:20:57;;;;;;;;;;;;;;;8.69;100.00;99979.16;1725510;81;20155;-66
2023/11/09 10:23:26;;;;;;;;;;;;;;;8.70;100.00;99969.16;1745747;81;20168;-73
2023/11/09 10:25:53;;;;;;;;;;;;;;;8.75;100.00;99980.63;1746884;80;20166;-72
2023/11/09 10:28:21;;;;;;;;;;;;;;;8.77;100.00;99974.90;1749386;80;20386;-70
2023/11/09 10:30:51;;;;;;;;;;;;;;;8.82;100.00;99985.41;1737940;82;20118;-73
2023/11/09 10:35:54;;;;;;;;;;;;;;;8.86;100.00;99986.09;1729727;80;20462;-68
2023/11/09 10:38:24;;;;;;;;;;;;;;;8.85;100.00;99987.85;1816617;77;20502;-69
2023/11/09 10:43:17;;;;;;;;;;;;;;;8.89;100.00;99997.63;1806250;77;20446;-76
2023/11/09 10:48:22;;;;;;;;;;;;;;;8.91;100.00;99999.70;1814634;78;20131;-74
2023/11/09 10:50:48;;;;;;;;;;;;;;;8.93;100.00;100002.59;1806170;78;20153;-72
2023/11/09 10:55:53;;;;;;;;;;;;;;;8.97;100.00;100010.63;1817270;78;20445;-73
2023/11/09 10:58:23;;;;;;;;;;;;;;;8.99;100.00;100017.88;1806159;77;20389;-65
2023/11/09 11:03:32;;;;;;;;;;;;;;;9.06;100.00;100018.42;1819360;79;20161;-78
2023/11/09 11:06:03;;;;;;;;;;;;;;;9.10;100.00;100026.44;1814193;79;20098;-70
2023/11/09 11:18:57;;;;;;;;;;;;;;;9.07;100.00;100027.89;1821422;77;20102;-77
2023/11/09 11:42:34;;;;;;;;;;;;;;;9.38;100.00;100047.13;1805037;78;20147;-73
2023/11/09 11:57:36;;;;;;;;;;;;;;;9.20;100.00;100076.16;1795139;79;20114;-72
2023/11/09 12:00:08;;;;;;;;;;;;;;;9.10;100.00;100071.06;1815337;77;20118;-68
2023/11/09 12:02:36;;;;;;;;;;;;;;;9.03;100.00;100073.12;1799552;77;20127;-75
2023/11/09 12:17:37;;;;;;;;;;;;;;;8.83;100.00;100071.47;1815161;77;20415;-78
2023/11/09 12:20:06;;;;;;;;;;;;;;;8.81;100.00;100069.86;1821717;77;20138;-66
2023/11/09 12:22:34;;;;;;;;;;;;;;;8.80;100.00;100075.97;1818110;77;20409;-69
2023/11/09 12:37:49;;;;;;;;;;;;;;;8.74;100.00;100086.22;1812243;78;20228;-70
2023/11/09 12:40:13;;;;;;;;;;;;;;;8.75;100.00;100096.98;1806168;79;20128;-69
2023/11/09 12:42:39;;;;;;;;;;;;;;;8.74;100.00;100099.66;1816281;77;20137;-81
2023/11/09 12:45:11;;;;;;;;;;;;;;;8.73;100.00;100103.17;1827660;77;20436;-75
2023/11/09 13:43:08;;;;;;;;;;;;;;;8.54;100.00;100146.84;1800203;79;20094;-64
2023/11/09 14:10:48;;;;;;;;;;;;;;;8.22;100.00;100166.89;1804980;77;20163;-70
2023/11/09 14:13:19;;;;;;;;;;;;;;;8.23;100.00;100163.39;1800641;77;20451;-65
2023/11/09 14:18:39;;;;;;;;;;;;;;;8.26;100.00;100161.95;1801191;78;20157;-69
2023/11/09 14:36:18;;;;;;;;;;;;;;;8.10;100.00;100181.23;1775857;79;20495;-72
2023/11/09 14:59:07;;;;;;;;;;;;;;;7.40;100.00;100195.88;1802808;77;20386;-70
